Latest Coastal Weather Observations for Cape Willoughby

IDS60701

Issued at 6:41 am CDT Monday 26 January 2015 (issued every 10 minutes, with the page automatically refreshed every 10 minutes)

About coastal observations | Map of coastal stations | Coastal observations for SA | Marine services | Other Formats
Station Details ID: 022803 Name: CAPE WILLOUGHBY Lat: -35.84 Lon: 138.13 Height: 55.0 m
Data from the previous 72 hours. | See also: Recent months at Cape Willoughby
Date/Time
CDT
Temp

°C
Wind Pressure Rain
since 9am
mm
Weather Cloud Vis
km
Sea
Height
m
Swell
Dir
 
Speed
knots
Gust
knots
hPa Trend Height
m
Period
s
Dir
26/06:30am 15.1 S 14 17 1017.5 - 0.4 - - - - - - -
26/06:00am 15.1 S 11 16 1017.2 - 0.4 - - - - - - -
26/05:30am 15.2 S 13 18 1016.7 - 0.4 - - - - - - -
26/05:00am 15.3 S 11 15 1016.5 - 0.4 - - - - - - -
26/04:30am 15.4 S 10 13 1016.3 - 0.4 - - - - - - -
26/04:00am 15.5 S 12 17 1016.1 - 0.4 - - - - - - -
26/03:30am 15.4 S 14 20 1016.0 - 0.4 - - - - - - -
26/03:00am 15.2 SSE 11 17 1015.8 - 0.4 - - - - - - -
26/02:30am 14.8 SSE 15 21 1015.8 - 0.4 - - - - - - -
26/02:23am 14.9 SSE 16 26 1016.0 - 0.4 - - - - - - -
26/02:16am 15.1 S 18 26 1015.7 - 0.4 - - - - - - -
26/02:00am 15.1 SSE 12 15 1016.0 - 0.4 - - - - - - -
26/01:30am 15.6 S 17 23 1015.9 - 0.4 - - - - - - -
26/01:00am 15.4 S 16 21 1016.3 - 0.4 - - - - - - -
26/12:30am 15.4 S 15 19 1016.4 - 0.4 - - - - - - -
26/12:00am 15.5 S 15 19 1016.4 - 0.4 Recent precip. - - - - - -
 
Date/Time
CDT
Temp

°C
Wind Pressure Rain
since 9am
mm
Weather Cloud Vis
km
Sea
Height
m
Swell
Dir
 
Speed
knots
Gust
knots
hPa Trend Height
m
Period
s
Dir
25/11:30pm 15.6 S 16 20 1016.2 - 0.4 - - - - - - -
25/11:00pm 15.5 S 12 17 1016.3 - 0.2 - - - - - - -
25/10:30pm 15.2 S 17 22 1016.1 - 0.2 - - - - - - -
25/10:00pm 14.8 S 8 12 1016.2 - 0.2 - - - - - - -
25/09:30pm 15.4 S 15 27 1015.5 - 0.0 - - - - - - -
25/09:00pm 15.9 S 14 20 1015.5 - 0.0 - - - - - - -
25/08:30pm 15.9 S 15 22 1015.3 - 0.0 - - - - - - -
25/08:00pm 15.9 S 14 20 1015.2 - 0.0 - - - - - - -
25/07:30pm 16.2 S 14 24 1015.0 - 0.0 - - - - - - -
25/07:00pm 16.5 SSW 15 23 1014.6 - 0.0 - - - - - - -
25/06:30pm 17.0 SSW 16 22 1014.5 - 0.0 - - - - - - -
25/06:00pm 17.1 SSW 16 25 1014.5 - 0.0 - - - - - - -
25/05:30pm 17.7 SSW 17 23 1014.5 - 0.0 - - - - - - -
25/05:00pm 17.6 SSW 19 25 1014.4 - 0.0 - - - - - - -
25/04:30pm 18.1 SW 19 24 1014.5 - 0.0 - - - - - - -
25/04:00pm 17.4 SW 20 25 1014.4 - 0.0 - - - - - - -
25/03:30pm 18.0 SW 20 27 1014.3 - 0.0 - - - - - - -
25/03:00pm 18.7 SW 20 25 1014.4 - 0.0 - - - - - - -
25/02:30pm 17.7 SW 19 24 1014.6 - 0.0 - - - - - - -
25/02:00pm 18.7 SW 18 25 1014.6 - 0.0 - - - - - - -
25/01:30pm 18.1 SW 20 25 1014.6 - 0.0 - - - - - - -
25/01:00pm 17.4 SW 18 22 1014.6 - 0.0 - - - - - - -
25/12:30pm 18.1 SW 14 22 1014.5 - 0.0 - - - - - - -
25/12:00pm 17.4 SW 16 21 1014.6 - 0.0 - - - - - - -
25/11:30am 16.9 SW 19 24 1014.6 - 0.0 - - - - - - -
25/11:00am 17.0 SW 18 23 1014.1 - 0.0 - - - - - - -
25/10:30am 16.2 SW 19 26 1014.0 - 0.0 - - - - - - -
25/10:00am 17.4 SW 12 17 1013.8 - 0.0 - - - - - - -
25/09:30am 16.9 SW 16 20 1013.7 - 0.0 - - - - - - -
25/09:00am 16.3 SW 18 22 1013.0 - 1.2 - - - - - - -
25/08:30am 15.7 SSW 12 16 1012.9 - 1.2 - - - - - - -
25/08:00am 15.5 SW 15 21 1012.3 - 1.2 - - - - - - -
25/07:30am 14.8 WSW 9 12 1012.1 - 1.2 - - - - - - -
25/07:00am 14.3 WSW 10 13 1011.7 - 1.2 - - - - - - -
25/06:30am 14.8 SW 15 22 1011.1 - 1.2 - - - - - - -
25/06:00am 15.0 SSW 16 20 1010.6 - 1.2 - - - - - - -
25/05:30am 15.1 SW 19 23 1010.1 - 1.2 - - - - - - -
25/05:00am 15.4 SSW 15 20 1010.0 - 1.2 - - - - - - -
25/04:30am 15.3 SW 13 17 1009.7 - 1.2 - - - - - - -
25/04:00am 15.2 SW 17 23 1009.5 - 1.2 - - - - - - -
25/03:30am 15.3 SW 19 25 1009.3 - 1.2 - - - - - - -
25/03:00am 14.8 WSW 14 20 1009.7 - 1.2 - - - - - - -
25/02:30am 15.2 SW 19 24 1009.7 - 1.2 - - - - - - -
25/02:00am 15.6 SW 22 28 1009.4 - 1.2 - - - - - - -
25/01:30am 15.2 SSW 21 30 1009.4 - 1.2 - - - - - - -
25/01:00am 15.7 SSW 23 29 1009.2 - 1.2 - - - - - - -
25/12:30am 16.2 SW 17 27 1009.4 - 1.2 - - - - - - -
25/12:00am 16.1 SW 19 26 1009.1 - 1.2 - - - - - - -
 
Date/Time
CDT
Temp

°C
Wind Pressure Rain
since 9am
mm
Weather Cloud Vis
km
Sea
Height
m
Swell
Dir
 
Speed
knots
Gust
knots
hPa Trend Height
m
Period
s
Dir
24/11:30pm 16.1 SW 20 26 1009.0 - 1.2 - - - - - - -
24/11:01pm 16.1 WSW 17 30 1008.8 - 1.2 - - - - - - -
24/11:00pm 15.8 WSW 16 25 1008.9 - 1.2 - - - - - - -
24/10:30pm 15.6 WSW 15 22 1008.9 - 1.2 - - - - - - -
24/10:00pm 15.9 SW 18 23 1008.5 - 1.2 - - - - - - -
24/09:30pm 15.8 WSW 14 22 1008.2 - 1.2 - - - - - - -
24/09:00pm 16.0 WSW 21 29 1007.7 - 0.0 - - - - - - -
24/08:49pm 18.2 W 13 33 1007.4 - 0.0 - - - - - - -
24/08:30pm 18.3 WNW 12 17 1007.0 - 0.0 - - - - - - -
24/08:00pm 18.0 W 19 31 1006.7 - 0.0 - - - - - - -
24/07:58pm 17.8 W 20 31 1006.6 - 0.0 - - - - - - -
24/07:30pm 18.0 WSW 22 27 1006.2 - 0.0 - - - - - - -
24/07:21pm 18.8 WSW 20 28 1006.2 - 0.0 - - - - - - -
24/07:00pm 21.0 NW 19 27 1005.8 - 0.0 - - - - - - -
24/06:32pm 20.9 WNW 20 30 1005.3 - 0.0 - - - - - - -
24/06:30pm 21.2 WNW 18 27 1005.4 - 0.0 - - - - - - -
24/06:00pm 21.6 NW 21 29 1005.2 - 0.0 - - - - - - -
24/05:30pm 21.4 NW 21 27 1005.5 - 0.0 - - - - - - -
24/05:00pm 22.2 NW 22 31 1005.5 - 0.0 - - - - - - -
24/04:30pm 22.1 NW 21 29 1005.6 - 0.0 - - - - - - -
24/04:03pm 22.2 NW 17 30 1005.7 - 0.0 - - - - - - -
24/04:00pm 22.2 NW 13 23 1005.8 - 0.0 - - - - - - -
24/03:30pm 20.1 SW 13 22 1006.2 - 0.0 - - - - - - -
24/03:20pm 22.2 W 11 23 1006.0 - 0.0 - - - - - - -
24/03:00pm 20.1 ESE 6 10 1006.4 - 0.0 - - - - - - -
24/02:30pm 20.4 SE 8 10 1006.2 - 0.0 - - - - - - -
24/02:00pm 20.3 SSE 7 9 1006.6 - 0.0 - - - - - - -
24/01:37pm 21.4 NNW 19 28 1006.7 - 0.0 - - - - - - -
24/01:30pm 21.5 NNW 19 27 1006.4 - 0.0 - - - - - - -
24/01:00pm 21.9 NW 16 22 1006.8 - 0.0 - - - - - - -
24/12:30pm 21.4 NNW 11 17 1007.0 - 0.0 - - - - - - -
24/12:00pm 21.2 NW 15 22 1007.1 - 0.0 - - - - - - -
24/11:42am 20.9 NW 15 25 1007.2 - 0.0 - - - - - - -
24/11:30am 20.4 WNW 12 17 1007.4 - 0.0 - - - - - - -
24/11:00am 19.9 WNW 13 19 1007.4 - 0.0 - - - - - - -
24/10:30am 18.9 W 12 17 1007.6 - 0.0 - - - - - - -
24/10:00am 19.0 W 13 17 1007.6 - 0.0 - - - - - - -
24/09:30am 19.2 WNW 11 16 1007.9 - 0.0 - - - - - - -
24/09:00am 18.9 WNW 12 17 1008.0 - 0.0 - - - - - - -
24/08:30am 17.6 WNW 9 12 1007.7 - 0.0 - - - - - - -
24/08:00am 16.9 W 7 11 1007.6 - 0.0 - - - - - - -
24/07:30am 15.5 W 11 15 1007.6 - 0.0 - - - - - - -
24/07:00am 14.8 W 10 12 1007.3 - 0.0 - - - - - - -
24/06:30am 15.0 W 9 11 1007.2 - 0.0 - - - - - - -
24/06:00am 15.5 W 10 13 1007.3 - 0.0 - - - - - - -
24/05:30am 15.8 W 9 13 1007.3 - 0.0 - - - - - - -
24/05:00am 15.8 WNW 6 6 1007.3 - 0.0 - - - - - - -
24/04:30am 15.8 WNW 6 7 1007.4 - 0.0 - - - - - - -
24/04:00am 15.8 WNW 6 6 1007.6 - 0.0 - - - - - - -
24/03:30am 15.8 WNW 6 7 1007.9 - 0.0 - - - - - - -
24/03:00am 15.8 WNW 6 7 1008.1 - 0.0 - - - - - - -
24/02:30am 16.2 E 3 4 1008.0 - 0.0 - - - - - - -
24/02:00am 16.7 CALM 0 0 1008.3 - 0.0 - - - - - - -
24/01:30am 16.6 CALM 0 0 1008.7 - 0.0 - - - - - - -
24/01:00am 16.7 E 1 3 1008.9 - 0.0 - - - - - - -
24/12:30am 16.9 SE 2 4 1009.0 - 0.0 - - - - - - -
24/12:00am 16.6 SE 3 4 1009.3 - 0.0 - - - - - - -
 
Date/Time
CDT
Temp

°C
Wind Pressure Rain
since 9am
mm
Weather Cloud Vis
km
Sea
Height
m
Swell
Dir
 
Speed
knots
Gust
knots
hPa Trend Height
m
Period
s
Dir
23/11:30pm 16.8 SE 4 6 1009.5 - 0.0 - - - - - - -
23/11:00pm 17.0 SSE 5 7 1009.4 - 0.0 - - - - - - -
23/10:30pm 17.3 S 7 9 1009.7 - 0.0 - - - - - - -
23/10:00pm 17.4 S 7 9 1009.9 - 0.0 - - - - - - -
23/09:30pm 17.4 S 8 10 1009.4 - 0.0 - - - - - - -
23/09:00pm 17.7 S 10 12 1009.5 - 0.0 - - - - - - -
23/08:30pm 17.8 S 11 13 1009.1 - 0.0 - - - - - - -
23/08:00pm 18.0 S 11 13 1009.2 - 0.0 - - - - - - -
23/07:30pm 18.0 S 11 13 1009.0 - 0.0 - - - - - - -
23/07:00pm 18.1 S 11 14 1009.1 - 0.0 - - - - - - -
23/06:30pm 18.2 S 11 15 1008.9 - 0.0 - - - - - - -
23/06:00pm 18.6 S 10 13 1009.0 - 0.0 - - - - - - -
23/05:30pm 18.8 SSW 10 14 1009.0 - 0.0 - - - - - - -
23/05:00pm 19.0 S 11 15 1009.1 - 0.0 - - - - - - -
23/04:30pm 19.3 S 12 17 1009.2 - 0.0 - - - - - - -
23/04:00pm 19.2 S 11 16 1009.3 - 0.0 - - - - - - -
23/03:30pm 19.5 S 11 17 1009.4 - 0.0 - - - - - - -
23/03:00pm 19.2 S 10 14 1009.7 - 0.0 - - - - - - -
23/02:30pm 19.5 S 10 15 1009.8 - 0.0 - - - - - - -
23/02:00pm 19.4 S 9 15 1010.1 - 0.0 - - - - - - -
23/01:30pm 19.5 S 9 15 1010.2 - 0.0 - - - - - - -
23/01:00pm 19.0 S 7 11 1010.3 - 0.0 - - - - - - -
23/12:30pm 19.0 S 7 10 1010.5 - 0.0 - - - - - - -
23/12:00pm 19.3 S 6 9 1010.7 - 0.0 - - - - - - -
23/11:30am 18.6 S 7 11 1010.7 - 0.0 - - - - - - -
23/11:00am 18.4 S 8 11 1010.6 - 0.0 - - - - - - -
23/10:30am 18.3 S 8 13 1010.5 - 0.0 - - - - - - -
23/10:00am 18.1 S 10 16 1010.4 - 0.0 - - - - - - -
23/09:30am 17.9 SSW 10 17 1010.3 - 0.0 - - - - - - -
23/09:00am 18.3 SW 13 16 1010.5 - - - - - - - - -
23/08:30am 17.9 SSW 16 20 1009.8 - - - - - - - - -
23/08:00am 17.8 SW 14 17 1009.3 - - - - - - - - -
23/07:30am 17.4 SW 20 24 1008.6 - - - - - - - - -
23/07:00am 17.7 SW 16 20 1008.3 - - - - - - - - -

Other Formats:

Comma delimited format used in spreadsheet applications
http://www.bom.gov.au/fwo/IDS60701/IDS60701.94822.axf

JavaScript Object Notation format (JSON) in row-major order
http://www.bom.gov.au/fwo/IDS60701/IDS60701.94822.json